Terminal Aerodrome Forecast
Issued by NWS

Home | Current Version | Previous Version | Text Only | Print | Product List | Glossary On
Versions: 1 2 3 4 5 6 7 8 9 10 11 12 13 14 15 16 17 18 19 20 21 22 23 24 25 26 27
000
FTUS41 KBUF 010541
TAFJHW
TAF
KJHW 010541Z 0106/0206 24006KT P6SM SCT070
     FM010900 VRB03KT P6SM SCT050
     FM011500 28008KT P6SM SCT060
     FM011800 28012G18KT P6SM SCT060 BKN250
     FM012300 27009KT P6SM SCT200
     FM020500 20004KT P6SM SCT050
      AMD LTD TO CLD VIS AND WIND=

USA.gov is the U.S. government's official web portal to all federal, state and local government web resources and services.